Airfield :
LOGIN :

Register | Disclaimer

   EN    FR    IT 

 










Legend :    VFR   Marginal VFR   IFR   Intensive IFR   Very Intensive IFR
Visi :
Ceiling :
>= 8 km
>= 3000ft
5 to 8 km
1000 to 3000 ft
1500m to 5 km
500 to 1000 ft
800 to 1500m
200 to 500 ft
< 800m
< 200 ft
Symbols :   Thunderstorms  Fog  Heavy snow  Heavy precipitations  Wind > 20 kt
SIGMETs :     Misc.  Thunderstorms  Icing  Turbulence  Mountain Waves  Volcanic Ashes






- Airport Elevation : 277 ft
- IATA code : JER


EGJJ - Jersey

CURRENT METAR :
  • 192120Z AUTO 13009KT 4000 BKN002/// 15/14 Q1008

EXPIRED METARs :
  • 192050Z AUTO 12007KT 6000 NCD 14/14 Q1008
  • 192020Z AUTO 09008KT 6000 TS BKN002/// OVC003/// 14/14 Q1008
  • 191950Z AUTO 08009KT 4200 GS NCD 15/14 Q1008 RERA
  • 191920Z 10009KT 7000 -SHRA SCT002 BKN003 15/14 Q1008
  • 191850Z 09010KT 9000 SCT003 15/14 Q1009
  • 191820Z 11012KT 9999 BKN003 15/14 Q1009

TAF TAF EGJJ
Valid from the 19 at 21:00 until the 20 at 06:00 UTC


191958Z 1921/2006 12010KT 9999 SCT003 BKN005
TEMPO 1921/1923 4000 SHRA BR BKN002 BKN040CB
PROB30
TEMPO 1921/1922 11015G27KT 4000 +TSRAGS BKN003 BKN020CB
BECMG 1923/2001 22009KT FEW010 SCT030 BKN035
ATIS : +44 1534 498 073



MET'MAP, your aeronautical weather chart ! - Copyright ORBIFLY December 2007 - Disclaimer

ORBIFLY MET'MAP TEAM :

Programming & Development : Alexandra Zaïnal
Concept & original design : Baudouin d'Aumeries
Assistance for programming : Marc-Olivier Méhu
Technical & hardware support : Manuel Goepfert

Contact : metmap@orbifly.com




SOURCES & CREDITS :

   NOAA